sensor_id;sensor_type;location;lat;lon;timestamp;temperature;humidity
35277;DHT22;21401;50.878;8.050;2022-12-08T00:01:50;3.00;99.90
35277;DHT22;21401;50.878;8.050;2022-12-08T00:04:26;3.00;99.90
35277;DHT22;21401;50.878;8.050;2022-12-08T00:07:12;3.00;99.90
35277;DHT22;21401;50.878;8.050;2022-12-08T00:10:01;3.00;99.90
35277;DHT22;21401;50.878;8.050;2022-12-08T00:12:33;3.00;99.90
35277;DHT22;21401;50.878;8.050;2022-12-08T00:18:11;3.00;99.90
35277;DHT22;21401;50.878;8.050;2022-12-08T00:20:43;3.00;99.90
35277;DHT22;21401;50.878;8.050;2022-12-08T00:23:10;3.00;99.90
35277;DHT22;21401;50.878;8.050;2022-12-08T00:26:00;3.00;99.90
35277;DHT22;21401;50.878;8.050;2022-12-08T00:28:26;3.00;99.90
35277;DHT22;21401;50.878;8.050;2022-12-08T00:31:20;3.00;99.90
35277;DHT22;21401;50.878;8.050;2022-12-08T00:33:45;3.00;99.90
35277;DHT22;21401;50.878;8.050;2022-12-08T00:36:13;3.00;99.90
35277;DHT22;21401;50.878;8.050;2022-12-08T00:38:40;3.00;99.90
35277;DHT22;21401;50.878;8.050;2022-12-08T00:41:16;3.00;99.90
35277;DHT22;21401;50.878;8.050;2022-12-08T00:43:42;3.00;99.90
35277;DHT22;21401;50.878;8.050;2022-12-08T00:46:08;3.00;99.90
35277;DHT22;21401;50.878;8.050;2022-12-08T00:48:34;3.00;99.90
35277;DHT22;21401;50.878;8.050;2022-12-08T00:51:02;3.00;99.90
35277;DHT22;21401;50.878;8.050;2022-12-08T00:53:30;3.10;99.90
35277;DHT22;21401;50.878;8.050;2022-12-08T00:55:58;3.00;99.90
35277;DHT22;21401;50.878;8.050;2022-12-08T00:58:24;3.10;99.90
35277;DHT22;21401;50.878;8.050;2022-12-08T01:00:51;3.10;99.90
35277;DHT22;21401;50.878;8.050;2022-12-08T01:03:17;3.10;99.90
35277;DHT22;21401;50.878;8.050;2022-12-08T01:05:43;3.10;99.90
35277;DHT22;21401;50.878;8.050;2022-12-08T01:08:08;3.10;99.90
35277;DHT22;21401;50.878;8.050;2022-12-08T01:10:35;3.10;99.90
35277;DHT22;21401;50.878;8.050;2022-12-08T01:13:01;3.10;99.90
35277;DHT22;21401;50.878;8.050;2022-12-08T01:15:26;3.10;99.90
35277;DHT22;21401;50.878;8.050;2022-12-08T01:17:52;3.10;99.90
35277;DHT22;21401;50.878;8.050;2022-12-08T01:20:18;3.10;99.90
35277;DHT22;21401;50.878;8.050;2022-12-08T01:22:43;3.10;99.90
35277;DHT22;21401;50.878;8.050;2022-12-08T01:25:09;3.10;99.90
35277;DHT22;21401;50.878;8.050;2022-12-08T01:27:37;3.20;99.90
35277;DHT22;21401;50.878;8.050;2022-12-08T01:30:03;3.20;99.90
35277;DHT22;21401;50.878;8.050;2022-12-08T01:32:31;3.20;99.90
35277;DHT22;21401;50.878;8.050;2022-12-08T01:34:57;3.20;99.90
35277;DHT22;21401;50.878;8.050;2022-12-08T01:37:25;3.20;99.90
35277;DHT22;21401;50.878;8.050;2022-12-08T01:39:51;3.10;99.90
35277;DHT22;21401;50.878;8.050;2022-12-08T01:42:21;3.10;99.90
35277;DHT22;21401;50.878;8.050;2022-12-08T01:44:59;3.10;99.90
35277;DHT22;21401;50.878;8.050;2022-12-08T01:47:35;3.10;99.90
35277;DHT22;21401;50.878;8.050;2022-12-08T01:50:04;3.10;99.90
35277;DHT22;21401;50.878;8.050;2022-12-08T01:52:47;3.10;99.90
35277;DHT22;21401;50.878;8.050;2022-12-08T01:58:18;3.10;99.90
35277;DHT22;21401;50.878;8.050;2022-12-08T02:00:47;3.10;99.90
35277;DHT22;21401;50.878;8.050;2022-12-08T02:03:21;3.10;99.90
35277;DHT22;21401;50.878;8.050;2022-12-08T02:05:50;3.20;99.90
35277;DHT22;21401;50.878;8.050;2022-12-08T02:08:21;3.20;99.90
35277;DHT22;21401;50.878;8.050;2022-12-08T02:10:48;3.10;99.90
35277;DHT22;21401;50.878;8.050;2022-12-08T02:13:16;3.10;99.90
35277;DHT22;21401;50.878;8.050;2022-12-08T02:27:21;3.20;99.90
35277;DHT22;21401;50.878;8.050;2022-12-08T02:30:19;3.10;99.90
35277;DHT22;21401;50.878;8.050;2022-12-08T02:41:48;3.10;99.90
35277;DHT22;21401;50.878;8.050;2022-12-08T02:44:40;3.10;99.90
35277;DHT22;21401;50.878;8.050;2022-12-08T02:47:18;3.10;99.90
35277;DHT22;21401;50.878;8.050;2022-12-08T02:49:47;3.10;99.90
35277;DHT22;21401;50.878;8.050;2022-12-08T02:54:41;3.10;99.90
35277;DHT22;21401;50.878;8.050;2022-12-08T03:00:01;3.10;99.90
35277;DHT22;21401;50.878;8.050;2022-12-08T03:05:07;3.00;99.90
35277;DHT22;21401;50.878;8.050;2022-12-08T03:10:15;3.00;99.90
35277;DHT22;21401;50.878;8.050;2022-12-08T03:12:53;3.00;99.90
35277;DHT22;21401;50.878;8.050;2022-12-08T03:15:23;2.90;99.90
35277;DHT22;21401;50.878;8.050;2022-12-08T03:17:56;2.90;99.90
35277;DHT22;21401;50.878;8.050;2022-12-08T03:20:25;2.90;99.90
35277;DHT22;21401;50.878;8.050;2022-12-08T03:22:56;2.90;99.90
35277;DHT22;21401;50.878;8.050;2022-12-08T03:25:26;2.90;99.90
35277;DHT22;21401;50.878;8.050;2022-12-08T03:27:52;2.90;99.90
35277;DHT22;21401;50.878;8.050;2022-12-08T03:30:18;2.90;99.90
35277;DHT22;21401;50.878;8.050;2022-12-08T03:35:19;2.90;99.90
35277;DHT22;21401;50.878;8.050;2022-12-08T03:37:49;3.00;99.90
35277;DHT22;21401;50.878;8.050;2022-12-08T03:40:19;3.00;99.90
35277;DHT22;21401;50.878;8.050;2022-12-08T03:42:52;2.90;99.90
35277;DHT22;21401;50.878;8.050;2022-12-08T03:45:17;2.80;99.90
35277;DHT22;21401;50.878;8.050;2022-12-08T03:47:46;2.90;99.90
35277;DHT22;21401;50.878;8.050;2022-12-08T03:50:14;2.90;99.90
35277;DHT22;21401;50.878;8.050;2022-12-08T03:52:40;2.90;99.90
35277;DHT22;21401;50.878;8.050;2022-12-08T03:55:06;2.90;99.90
35277;DHT22;21401;50.878;8.050;2022-12-08T03:57:31;2.90;99.90
35277;DHT22;21401;50.878;8.050;2022-12-08T03:59:57;2.90;99.90
35277;DHT22;21401;50.878;8.050;2022-12-08T04:02:23;2.90;99.90
35277;DHT22;21401;50.878;8.050;2022-12-08T04:04:50;2.80;99.90
35277;DHT22;21401;50.878;8.050;2022-12-08T04:07:16;2.90;99.90
35277;DHT22;21401;50.878;8.050;2022-12-08T04:09:42;2.90;99.90
35277;DHT22;21401;50.878;8.050;2022-12-08T04:12:11;2.90;99.90
35277;DHT22;21401;50.878;8.050;2022-12-08T04:14:37;2.90;99.90
35277;DHT22;21401;50.878;8.050;2022-12-08T04:17:02;2.90;99.90
35277;DHT22;21401;50.878;8.050;2022-12-08T04:19:28;2.90;99.90
35277;DHT22;21401;50.878;8.050;2022-12-08T04:21:54;2.80;99.90
35277;DHT22;21401;50.878;8.050;2022-12-08T04:24:20;2.80;99.90
35277;DHT22;21401;50.878;8.050;2022-12-08T04:26:49;2.80;99.90
35277;DHT22;21401;50.878;8.050;2022-12-08T04:29:18;2.80;99.90
35277;DHT22;21401;50.878;8.050;2022-12-08T04:31:44;2.80;99.90
35277;DHT22;21401;50.878;8.050;2022-12-08T04:34:09;2.80;99.90
35277;DHT22;21401;50.878;8.050;2022-12-08T04:36:37;2.70;99.90
35277;DHT22;21401;50.878;8.050;2022-12-08T04:39:10;2.80;99.90
35277;DHT22;21401;50.878;8.050;2022-12-08T04:41:35;2.80;99.90
35277;DHT22;21401;50.878;8.050;2022-12-08T04:44:01;2.80;99.90
35277;DHT22;21401;50.878;8.050;2022-12-08T04:46:29;2.90;99.90
35277;DHT22;21401;50.878;8.050;2022-12-08T04:48:54;2.80;99.90
35277;DHT22;21401;50.878;8.050;2022-12-08T04:51:28;2.80;99.90
35277;DHT22;21401;50.878;8.050;2022-12-08T04:53:59;2.80;99.90
35277;DHT22;21401;50.878;8.050;2022-12-08T04:56:26;2.90;99.90
35277;DHT22;21401;50.878;8.050;2022-12-08T04:58:54;2.90;99.90
35277;DHT22;21401;50.878;8.050;2022-12-08T05:01:22;2.90;99.90
35277;DHT22;21401;50.878;8.050;2022-12-08T05:03:55;2.90;99.90
35277;DHT22;21401;50.878;8.050;2022-12-08T05:06:21;2.80;99.90
35277;DHT22;21401;50.878;8.050;2022-12-08T05:08:49;2.90;99.90
35277;DHT22;21401;50.878;8.050;2022-12-08T05:11:15;2.90;99.90
35277;DHT22;21401;50.878;8.050;2022-12-08T05:13:59;2.90;99.90
35277;DHT22;21401;50.878;8.050;2022-12-08T05:16:25;2.90;99.90
35277;DHT22;21401;50.878;8.050;2022-12-08T05:18:57;2.90;99.90
35277;DHT22;21401;50.878;8.050;2022-12-08T05:21:23;2.90;99.90
35277;DHT22;21401;50.878;8.050;2022-12-08T05:23:50;2.90;99.90
35277;DHT22;21401;50.878;8.050;2022-12-08T05:26:16;2.90;99.90
35277;DHT22;21401;50.878;8.050;2022-12-08T05:28:41;2.90;99.90
35277;DHT22;21401;50.878;8.050;2022-12-08T05:31:08;2.90;99.90
35277;DHT22;21401;50.878;8.050;2022-12-08T05:33:34;2.90;99.90
35277;DHT22;21401;50.878;8.050;2022-12-08T05:35:59;3.00;99.90
35277;DHT22;21401;50.878;8.050;2022-12-08T05:38:25;2.90;99.90
35277;DHT22;21401;50.878;8.050;2022-12-08T05:40:53;2.90;99.90
35277;DHT22;21401;50.878;8.050;2022-12-08T05:43:23;2.90;99.90
35277;DHT22;21401;50.878;8.050;2022-12-08T05:45:49;2.90;99.90
35277;DHT22;21401;50.878;8.050;2022-12-08T05:48:17;2.90;99.90
35277;DHT22;21401;50.878;8.050;2022-12-08T05:50:46;2.90;99.90
35277;DHT22;21401;50.878;8.050;2022-12-08T05:53:12;2.90;99.90
35277;DHT22;21401;50.878;8.050;2022-12-08T05:55:38;2.80;99.90
35277;DHT22;21401;50.878;8.050;2022-12-08T05:58:05;2.90;99.90
35277;DHT22;21401;50.878;8.050;2022-12-08T06:00:30;2.80;99.90
35277;DHT22;21401;50.878;8.050;2022-12-08T06:02:59;2.80;99.90
35277;DHT22;21401;50.878;8.050;2022-12-08T06:05:27;2.80;99.90
35277;DHT22;21401;50.878;8.050;2022-12-08T06:07:52;2.80;99.90
35277;DHT22;21401;50.878;8.050;2022-12-08T06:10:20;2.80;99.90
35277;DHT22;21401;50.878;8.050;2022-12-08T06:12:48;2.80;99.90
35277;DHT22;21401;50.878;8.050;2022-12-08T06:15:16;2.80;99.90
35277;DHT22;21401;50.878;8.050;2022-12-08T06:17:41;2.80;99.90
35277;DHT22;21401;50.878;8.050;2022-12-08T06:20:07;2.80;99.90
35277;DHT22;21401;50.878;8.050;2022-12-08T06:22:33;2.80;99.90
35277;DHT22;21401;50.878;8.050;2022-12-08T06:24:59;2.80;99.90
35277;DHT22;21401;50.878;8.050;2022-12-08T06:27:25;2.80;99.90
35277;DHT22;21401;50.878;8.050;2022-12-08T06:29:50;2.80;99.90
35277;DHT22;21401;50.878;8.050;2022-12-08T06:32:16;2.80;99.90
35277;DHT22;21401;50.878;8.050;2022-12-08T06:34:42;2.80;99.90
35277;DHT22;21401;50.878;8.050;2022-12-08T06:37:07;2.80;99.90
35277;DHT22;21401;50.878;8.050;2022-12-08T06:39:33;2.80;99.90
35277;DHT22;21401;50.878;8.050;2022-12-08T06:41:59;2.80;99.90
35277;DHT22;21401;50.878;8.050;2022-12-08T06:44:43;2.70;99.90
35277;DHT22;21401;50.878;8.050;2022-12-08T06:47:08;2.70;99.90
35277;DHT22;21401;50.878;8.050;2022-12-08T06:49:36;2.90;99.90
35277;DHT22;21401;50.878;8.050;2022-12-08T06:52:02;2.80;99.90
35277;DHT22;21401;50.878;8.050;2022-12-08T06:54:27;2.80;99.90
35277;DHT22;21401;50.878;8.050;2022-12-08T06:56:53;2.70;99.90
35277;DHT22;21401;50.878;8.050;2022-12-08T06:59:18;2.70;99.90
35277;DHT22;21401;50.878;8.050;2022-12-08T07:01:45;2.80;99.90
35277;DHT22;21401;50.878;8.050;2022-12-08T07:04:11;2.70;99.90
35277;DHT22;21401;50.878;8.050;2022-12-08T07:06:36;2.80;99.90
35277;DHT22;21401;50.878;8.050;2022-12-08T07:09:02;2.80;99.90
35277;DHT22;21401;50.878;8.050;2022-12-08T07:11:28;2.80;99.90
35277;DHT22;21401;50.878;8.050;2022-12-08T07:13:59;2.70;99.90
35277;DHT22;21401;50.878;8.050;2022-12-08T07:16:25;2.70;99.90
35277;DHT22;21401;50.878;8.050;2022-12-08T07:18:53;2.70;99.90
35277;DHT22;21401;50.878;8.050;2022-12-08T07:21:19;2.70;99.90
35277;DHT22;21401;50.878;8.050;2022-12-08T07:23:48;2.70;99.90
35277;DHT22;21401;50.878;8.050;2022-12-08T07:26:16;2.70;99.90
35277;DHT22;21401;50.878;8.050;2022-12-08T07:28:42;2.70;99.90
35277;DHT22;21401;50.878;8.050;2022-12-08T07:31:18;2.70;99.90
35277;DHT22;21401;50.878;8.050;2022-12-08T07:33:47;2.70;99.90
35277;DHT22;21401;50.878;8.050;2022-12-08T07:36:16;2.70;99.90
35277;DHT22;21401;50.878;8.050;2022-12-08T07:38:42;2.70;99.90
35277;DHT22;21401;50.878;8.050;2022-12-08T07:41:13;2.80;99.90
35277;DHT22;21401;50.878;8.050;2022-12-08T07:43:39;2.70;99.90
35277;DHT22;21401;50.878;8.050;2022-12-08T07:46:11;2.70;99.90
35277;DHT22;21401;50.878;8.050;2022-12-08T07:48:41;2.70;99.90
35277;DHT22;21401;50.878;8.050;2022-12-08T07:51:07;2.80;99.90
35277;DHT22;21401;50.878;8.050;2022-12-08T07:53:33;2.80;99.90
35277;DHT22;21401;50.878;8.050;2022-12-08T07:55:59;2.80;99.90
35277;DHT22;21401;50.878;8.050;2022-12-08T07:58:25;2.80;99.90
35277;DHT22;21401;50.878;8.050;2022-12-08T08:00:51;2.80;99.90
35277;DHT22;21401;50.878;8.050;2022-12-08T08:03:16;2.80;99.90
35277;DHT22;21401;50.878;8.050;2022-12-08T08:05:42;2.90;99.90
35277;DHT22;21401;50.878;8.050;2022-12-08T08:08:13;2.90;99.90
35277;DHT22;21401;50.878;8.050;2022-12-08T08:10:41;2.90;99.90
35277;DHT22;21401;50.878;8.050;2022-12-08T08:13:07;2.90;99.90
35277;DHT22;21401;50.878;8.050;2022-12-08T08:15:35;2.90;99.90
35277;DHT22;21401;50.878;8.050;2022-12-08T08:18:01;3.00;99.90
35277;DHT22;21401;50.878;8.050;2022-12-08T08:20:27;3.00;99.90
35277;DHT22;21401;50.878;8.050;2022-12-08T08:22:54;3.00;99.90
35277;DHT22;21401;50.878;8.050;2022-12-08T08:25:23;2.90;99.90
35277;DHT22;21401;50.878;8.050;2022-12-08T08:27:49;2.90;99.90
35277;DHT22;21401;50.878;8.050;2022-12-08T08:30:15;2.90;99.90
35277;DHT22;21401;50.878;8.050;2022-12-08T08:32:41;3.00;99.90
35277;DHT22;21401;50.878;8.050;2022-12-08T08:35:08;3.00;99.90
35277;DHT22;21401;50.878;8.050;2022-12-08T08:37:33;3.00;99.90
35277;DHT22;21401;50.878;8.050;2022-12-08T08:40:01;3.00;99.90
35277;DHT22;21401;50.878;8.050;2022-12-08T08:42:29;2.90;99.90
35277;DHT22;21401;50.878;8.050;2022-12-08T08:44:55;3.00;99.90
35277;DHT22;21401;50.878;8.050;2022-12-08T08:47:20;3.00;99.90
35277;DHT22;21401;50.878;8.050;2022-12-08T08:49:46;3.00;99.90
35277;DHT22;21401;50.878;8.050;2022-12-08T08:52:14;3.00;99.90
35277;DHT22;21401;50.878;8.050;2022-12-08T08:54:39;3.00;99.90
35277;DHT22;21401;50.878;8.050;2022-12-08T08:57:05;3.10;99.90
35277;DHT22;21401;50.878;8.050;2022-12-08T08:59:30;3.00;99.90
35277;DHT22;21401;50.878;8.050;2022-12-08T09:01:58;3.00;99.90
35277;DHT22;21401;50.878;8.050;2022-12-08T09:04:26;3.00;99.90
35277;DHT22;21401;50.878;8.050;2022-12-08T09:06:52;2.90;99.90
35277;DHT22;21401;50.878;8.050;2022-12-08T09:09:17;3.00;99.90
35277;DHT22;21401;50.878;8.050;2022-12-08T09:11:43;2.90;99.90
35277;DHT22;21401;50.878;8.050;2022-12-08T09:14:13;3.00;99.90
35277;DHT22;21401;50.878;8.050;2022-12-08T09:16:39;2.90;99.90
35277;DHT22;21401;50.878;8.050;2022-12-08T09:19:05;2.90;99.90
35277;DHT22;21401;50.878;8.050;2022-12-08T09:21:31;2.90;99.90
35277;DHT22;21401;50.878;8.050;2022-12-08T09:23:58;3.00;99.90
35277;DHT22;21401;50.878;8.050;2022-12-08T09:26:24;3.00;99.90
35277;DHT22;21401;50.878;8.050;2022-12-08T09:28:51;3.00;99.90
35277;DHT22;21401;50.878;8.050;2022-12-08T09:31:20;3.00;99.90
35277;DHT22;21401;50.878;8.050;2022-12-08T09:33:47;3.00;99.90
35277;DHT22;21401;50.878;8.050;2022-12-08T09:36:13;3.10;99.90
35277;DHT22;21401;50.878;8.050;2022-12-08T09:38:39;3.00;99.90
35277;DHT22;21401;50.878;8.050;2022-12-08T09:41:16;3.00;99.90
35277;DHT22;21401;50.878;8.050;2022-12-08T09:43:59;3.00;99.90
35277;DHT22;21401;50.878;8.050;2022-12-08T09:46:31;3.10;99.90
35277;DHT22;21401;50.878;8.050;2022-12-08T09:48:59;3.10;99.90
35277;DHT22;21401;50.878;8.050;2022-12-08T09:51:28;3.10;99.90
35277;DHT22;21401;50.878;8.050;2022-12-08T09:54:02;3.10;99.90
35277;DHT22;21401;50.878;8.050;2022-12-08T09:56:32;3.10;99.90
35277;DHT22;21401;50.878;8.050;2022-12-08T09:59:20;3.10;99.90
35277;DHT22;21401;50.878;8.050;2022-12-08T10:01:46;3.10;99.90
35277;DHT22;21401;50.878;8.050;2022-12-08T10:11:59;3.10;99.90
35277;DHT22;21401;50.878;8.050;2022-12-08T10:14:33;3.10;99.90
35277;DHT22;21401;50.878;8.050;2022-12-08T10:17:24;3.10;99.90
35277;DHT22;21401;50.878;8.050;2022-12-08T10:19:56;3.10;99.90
35277;DHT22;21401;50.878;8.050;2022-12-08T10:22:25;3.10;99.90
35277;DHT22;21401;50.878;8.050;2022-12-08T10:27:24;3.30;99.90
35277;DHT22;21401;50.878;8.050;2022-12-08T10:29:50;3.30;99.90
35277;DHT22;21401;50.878;8.050;2022-12-08T10:32:18;3.20;99.90
35277;DHT22;21401;50.878;8.050;2022-12-08T10:37:23;3.20;99.90
35277;DHT22;21401;50.878;8.050;2022-12-08T10:40:03;3.20;99.90
35277;DHT22;21401;50.878;8.050;2022-12-08T10:42:46;3.30;99.90
35277;DHT22;21401;50.878;8.050;2022-12-08T10:45:37;3.20;99.90
35277;DHT22;21401;50.878;8.050;2022-12-08T10:48:21;3.20;99.90
35277;DHT22;21401;50.878;8.050;2022-12-08T10:50:54;3.20;99.90
35277;DHT22;21401;50.878;8.050;2022-12-08T10:53:46;3.20;99.90
35277;DHT22;21401;50.878;8.050;2022-12-08T10:56:19;3.20;99.90
35277;DHT22;21401;50.878;8.050;2022-12-08T10:59:23;3.20;99.90
35277;DHT22;21401;50.878;8.050;2022-12-08T11:02:11;3.20;99.90
35277;DHT22;21401;50.878;8.050;2022-12-08T11:04:53;3.20;99.90
35277;DHT22;21401;50.878;8.050;2022-12-08T11:07:29;3.20;99.90
35277;DHT22;21401;50.878;8.050;2022-12-08T11:09:59;3.20;99.90
35277;DHT22;21401;50.878;8.050;2022-12-08T11:12:27;3.20;99.90
35277;DHT22;21401;50.878;8.050;2022-12-08T11:15:00;3.20;99.90
35277;DHT22;21401;50.878;8.050;2022-12-08T11:17:35;3.20;99.90
35277;DHT22;21401;50.878;8.050;2022-12-08T11:20:21;3.20;99.90
35277;DHT22;21401;50.878;8.050;2022-12-08T11:22:53;3.20;99.90
35277;DHT22;21401;50.878;8.050;2022-12-08T11:25:26;3.10;99.90
35277;DHT22;21401;50.878;8.050;2022-12-08T11:27:58;3.10;99.90
35277;DHT22;21401;50.878;8.050;2022-12-08T11:30:27;3.10;99.90
35277;DHT22;21401;50.878;8.050;2022-12-08T11:33:18;3.20;99.90
35277;DHT22;21401;50.878;8.050;2022-12-08T11:36:04;3.20;99.90
35277;DHT22;21401;50.878;8.050;2022-12-08T11:38:33;3.20;99.90
35277;DHT22;21401;50.878;8.050;2022-12-08T11:41:10;3.20;99.90
35277;DHT22;21401;50.878;8.050;2022-12-08T11:46:54;3.20;99.90
35277;DHT22;21401;50.878;8.050;2022-12-08T11:49:38;3.20;99.90
35277;DHT22;21401;50.878;8.050;2022-12-08T11:55:04;3.20;99.90
35277;DHT22;21401;50.878;8.050;2022-12-08T11:57:48;3.30;99.90
35277;DHT22;21401;50.878;8.050;2022-12-08T12:00:15;3.30;99.90
35277;DHT22;21401;50.878;8.050;2022-12-08T12:02:47;3.30;99.90
35277;DHT22;21401;50.878;8.050;2022-12-08T12:06:32;3.30;99.90
35277;DHT22;21401;50.878;8.050;2022-12-08T12:19:03;3.40;99.90
35277;DHT22;21401;50.878;8.050;2022-12-08T12:24:31;3.40;99.90
35277;DHT22;21401;50.878;8.050;2022-12-08T12:33:05;3.30;99.90
35277;DHT22;21401;50.878;8.050;2022-12-08T12:35:45;3.30;99.90
35277;DHT22;21401;50.878;8.050;2022-12-08T12:38:24;3.30;99.90
35277;DHT22;21401;50.878;8.050;2022-12-08T12:41:11;3.40;99.90
35277;DHT22;21401;50.878;8.050;2022-12-08T12:43:38;3.20;99.90
35277;DHT22;21401;50.878;8.050;2022-12-08T12:49:48;3.10;99.90
35277;DHT22;21401;50.878;8.050;2022-12-08T12:57:56;3.20;99.90
35277;DHT22;21401;50.878;8.050;2022-12-08T13:00:25;3.20;99.90
35277;DHT22;21401;50.878;8.050;2022-12-08T13:02:56;3.20;99.90
35277;DHT22;21401;50.878;8.050;2022-12-08T13:13:15;3.30;99.90
35277;DHT22;21401;50.878;8.050;2022-12-08T13:18:36;3.20;99.90
35277;DHT22;21401;50.878;8.050;2022-12-08T13:21:21;3.20;99.90
35277;DHT22;21401;50.878;8.050;2022-12-08T13:26:24;3.20;99.90
35277;DHT22;21401;50.878;8.050;2022-12-08T13:29:41;3.30;99.90
35277;DHT22;21401;50.878;8.050;2022-12-08T13:35:59;3.20;99.90
35277;DHT22;21401;50.878;8.050;2022-12-08T13:38:53;3.30;99.90
35277;DHT22;21401;50.878;8.050;2022-12-08T13:42:06;3.30;99.90
35277;DHT22;21401;50.878;8.050;2022-12-08T13:45:40;3.30;99.90
35277;DHT22;21401;50.878;8.050;2022-12-08T13:48:57;3.30;99.90
35277;DHT22;21401;50.878;8.050;2022-12-08T13:54:47;3.10;99.90
35277;DHT22;21401;50.878;8.050;2022-12-08T13:57:35;3.20;99.90
35277;DHT22;21401;50.878;8.050;2022-12-08T14:00:16;3.10;99.90
35277;DHT22;21401;50.878;8.050;2022-12-08T14:02:45;3.10;99.90
35277;DHT22;21401;50.878;8.050;2022-12-08T14:05:20;3.10;99.90
35277;DHT22;21401;50.878;8.050;2022-12-08T14:08:33;3.20;99.90
35277;DHT22;21401;50.878;8.050;2022-12-08T14:11:31;3.10;99.90
35277;DHT22;21401;50.878;8.050;2022-12-08T14:14:30;3.10;99.90
35277;DHT22;21401;50.878;8.050;2022-12-08T14:17:05;3.00;99.90
35277;DHT22;21401;50.878;8.050;2022-12-08T14:19:34;3.00;99.90
35277;DHT22;21401;50.878;8.050;2022-12-08T14:22:11;2.90;99.90
35277;DHT22;21401;50.878;8.050;2022-12-08T14:24:37;2.90;99.90
35277;DHT22;21401;50.878;8.050;2022-12-08T14:27:10;2.90;99.90
35277;DHT22;21401;50.878;8.050;2022-12-08T14:30:18;2.90;99.90
35277;DHT22;21401;50.878;8.050;2022-12-08T14:32:51;2.90;99.90
35277;DHT22;21401;50.878;8.050;2022-12-08T14:35:41;2.90;99.90
35277;DHT22;21401;50.878;8.050;2022-12-08T14:38:21;2.90;99.90
35277;DHT22;21401;50.878;8.050;2022-12-08T14:41:06;2.90;99.90
35277;DHT22;21401;50.878;8.050;2022-12-08T14:43:33;3.00;99.90
35277;DHT22;21401;50.878;8.050;2022-12-08T14:46:03;3.00;99.90
35277;DHT22;21401;50.878;8.050;2022-12-08T14:54:18;2.90;99.90
35277;DHT22;21401;50.878;8.050;2022-12-08T14:57:17;2.90;99.90
35277;DHT22;21401;50.878;8.050;2022-12-08T14:59:53;2.90;99.90
35277;DHT22;21401;50.878;8.050;2022-12-08T15:02:24;2.90;99.90
35277;DHT22;21401;50.878;8.050;2022-12-08T15:05:02;2.90;99.90
35277;DHT22;21401;50.878;8.050;2022-12-08T15:10:21;2.90;99.90
35277;DHT22;21401;50.878;8.050;2022-12-08T15:15:53;2.90;99.90
35277;DHT22;21401;50.878;8.050;2022-12-08T15:18:34;2.90;99.90
35277;DHT22;21401;50.878;8.050;2022-12-08T15:21:04;2.90;99.90
35277;DHT22;21401;50.878;8.050;2022-12-08T15:23:49;2.80;99.90
35277;DHT22;21401;50.878;8.050;2022-12-08T15:26:22;2.90;99.90
35277;DHT22;21401;50.878;8.050;2022-12-08T15:29:08;3.00;99.90
35277;DHT22;21401;50.878;8.050;2022-12-08T15:32:21;3.00;99.90
35277;DHT22;21401;50.878;8.050;2022-12-08T15:34:49;2.90;99.90
35277;DHT22;21401;50.878;8.050;2022-12-08T15:37:46;2.90;99.90
35277;DHT22;21401;50.878;8.050;2022-12-08T15:40:32;2.90;99.90
35277;DHT22;21401;50.878;8.050;2022-12-08T15:46:48;2.90;99.90
35277;DHT22;21401;50.878;8.050;2022-12-08T15:49:55;2.90;99.90
35277;DHT22;21401;50.878;8.050;2022-12-08T15:59:33;2.90;99.90
35277;DHT22;21401;50.878;8.050;2022-12-08T16:02:49;2.90;99.90
35277;DHT22;21401;50.878;8.050;2022-12-08T16:05:34;2.80;99.90
35277;DHT22;21401;50.878;8.050;2022-12-08T16:08:33;2.80;99.90
35277;DHT22;21401;50.878;8.050;2022-12-08T16:11:38;2.80;99.90
35277;DHT22;21401;50.878;8.050;2022-12-08T16:18:15;2.80;99.90
35277;DHT22;21401;50.878;8.050;2022-12-08T16:21:02;2.80;99.90
35277;DHT22;21401;50.878;8.050;2022-12-08T16:24:06;2.80;99.90
35277;DHT22;21401;50.878;8.050;2022-12-08T16:26:33;2.90;99.90
35277;DHT22;21401;50.878;8.050;2022-12-08T16:28:59;2.90;99.90
35277;DHT22;21401;50.878;8.050;2022-12-08T16:31:26;2.90;99.90
35277;DHT22;21401;50.878;8.050;2022-12-08T16:33:52;2.90;99.90
35277;DHT22;21401;50.878;8.050;2022-12-08T16:36:19;2.70;99.90
35277;DHT22;21401;50.878;8.050;2022-12-08T16:38:45;2.60;99.90
35277;DHT22;21401;50.878;8.050;2022-12-08T16:41:14;2.70;99.90
35277;DHT22;21401;50.878;8.050;2022-12-08T16:44:03;2.70;99.90
35277;DHT22;21401;50.878;8.050;2022-12-08T16:46:30;2.80;99.90
35277;DHT22;21401;50.878;8.050;2022-12-08T16:48:56;2.80;99.90
35277;DHT22;21401;50.878;8.050;2022-12-08T16:51:25;2.70;99.90
35277;DHT22;21401;50.878;8.050;2022-12-08T16:53:51;2.70;99.90
35277;DHT22;21401;50.878;8.050;2022-12-08T16:56:19;2.70;99.90
35277;DHT22;21401;50.878;8.050;2022-12-08T16:58:47;2.70;99.90
35277;DHT22;21401;50.878;8.050;2022-12-08T17:01:16;2.70;99.90
35277;DHT22;21401;50.878;8.050;2022-12-08T17:03:44;2.60;99.90
35277;DHT22;21401;50.878;8.050;2022-12-08T17:06:16;2.60;99.90
35277;DHT22;21401;50.878;8.050;2022-12-08T17:08:43;2.60;99.90
35277;DHT22;21401;50.878;8.050;2022-12-08T17:11:18;2.60;99.90
35277;DHT22;21401;50.878;8.050;2022-12-08T17:13:47;2.60;99.90
35277;DHT22;21401;50.878;8.050;2022-12-08T17:16:16;2.60;99.90
35277;DHT22;21401;50.878;8.050;2022-12-08T17:18:43;2.60;99.90
35277;DHT22;21401;50.878;8.050;2022-12-08T17:21:13;2.60;99.90
35277;DHT22;21401;50.878;8.050;2022-12-08T17:23:40;2.60;99.90
35277;DHT22;21401;50.878;8.050;2022-12-08T17:26:11;2.50;99.90
35277;DHT22;21401;50.878;8.050;2022-12-08T17:28:37;2.60;99.90
35277;DHT22;21401;50.878;8.050;2022-12-08T17:31:10;2.60;99.90
35277;DHT22;21401;50.878;8.050;2022-12-08T17:33:37;2.90;99.90
35277;DHT22;21401;50.878;8.050;2022-12-08T17:36:03;2.60;99.90
35277;DHT22;21401;50.878;8.050;2022-12-08T17:38:30;2.60;99.90
35277;DHT22;21401;50.878;8.050;2022-12-08T17:41:01;2.60;99.90
35277;DHT22;21401;50.878;8.050;2022-12-08T17:43:27;2.60;99.90
35277;DHT22;21401;50.878;8.050;2022-12-08T17:45:53;2.50;99.90
35277;DHT22;21401;50.878;8.050;2022-12-08T17:48:20;2.50;99.90
35277;DHT22;21401;50.878;8.050;2022-12-08T17:50:47;2.40;99.90
35277;DHT22;21401;50.878;8.050;2022-12-08T17:53:13;2.20;99.90
35277;DHT22;21401;50.878;8.050;2022-12-08T17:55:40;2.10;99.90
35277;DHT22;21401;50.878;8.050;2022-12-08T17:58:07;2.00;99.90
35277;DHT22;21401;50.878;8.050;2022-12-08T18:00:34;1.80;99.90
35277;DHT22;21401;50.878;8.050;2022-12-08T18:03:00;1.60;99.90
35277;DHT22;21401;50.878;8.050;2022-12-08T18:05:27;1.50;99.90
35277;DHT22;21401;50.878;8.050;2022-12-08T18:07:57;1.40;99.90
35277;DHT22;21401;50.878;8.050;2022-12-08T18:10:23;1.30;99.90
35277;DHT22;21401;50.878;8.050;2022-12-08T18:12:48;1.40;99.90
35277;DHT22;21401;50.878;8.050;2022-12-08T18:15:17;1.40;99.90
35277;DHT22;21401;50.878;8.050;2022-12-08T18:17:51;1.40;99.90
35277;DHT22;21401;50.878;8.050;2022-12-08T18:20:19;1.40;99.90
35277;DHT22;21401;50.878;8.050;2022-12-08T18:22:45;1.40;99.90
35277;DHT22;21401;50.878;8.050;2022-12-08T18:25:12;1.40;99.90
35277;DHT22;21401;50.878;8.050;2022-12-08T18:27:38;1.20;99.90
35277;DHT22;21401;50.878;8.050;2022-12-08T18:30:09;1.10;99.90